createdAt,value
2024-02-22T00:01:13.440Z,37.95
2024-02-22T00:03:39.990Z,39.95
2024-02-22T00:06:06.775Z,40.55
2024-02-22T00:08:33.492Z,38.47
2024-02-22T00:11:00.221Z,38.97
2024-02-22T00:13:27.196Z,37.28
2024-02-22T00:15:53.816Z,37.85
2024-02-22T00:18:20.551Z,35.20
2024-02-22T00:20:47.316Z,45.08
2024-02-22T00:23:13.888Z,38.15
2024-02-22T00:25:40.568Z,38.45
2024-02-22T00:28:07.173Z,36.78
2024-02-22T00:30:33.961Z,35.78
2024-02-22T00:33:00.597Z,36.00
2024-02-22T00:35:28.254Z,36.08
2024-02-22T00:37:54.895Z,37.83
2024-02-22T00:40:21.499Z,37.10
2024-02-22T00:42:48.334Z,37.35
2024-02-22T00:45:15.704Z,39.25
2024-02-22T00:47:42.280Z,38.67
2024-02-22T00:50:09.739Z,37.05
2024-02-22T00:52:36.874Z,37.60
2024-02-22T00:55:03.916Z,35.42
2024-02-22T00:57:30.455Z,41.78
2024-02-22T00:59:56.986Z,38.10
2024-02-22T01:02:27.190Z,35.08
2024-02-22T01:07:22.385Z,34.95
2024-02-22T01:09:49.068Z,36.88
2024-02-22T01:12:15.707Z,33.55
2024-02-22T01:14:42.289Z,37.15
2024-02-22T01:17:08.959Z,36.80
2024-02-22T01:19:35.740Z,38.95
2024-02-22T01:22:03.520Z,38.05
2024-02-22T01:24:30.370Z,35.10
2024-02-22T01:26:57.028Z,36.88
2024-02-22T01:29:23.566Z,39.30
2024-02-22T01:31:50.135Z,33.17
2024-02-22T01:34:16.803Z,36.13
2024-02-22T01:36:43.398Z,38.55
2024-02-22T01:39:10.970Z,38.47
2024-02-22T01:41:37.720Z,38.70
2024-02-22T01:44:04.382Z,39.17
2024-02-22T01:46:31.356Z,37.60
2024-02-22T01:48:57.975Z,34.35
2024-02-22T01:51:24.556Z,38.10
2024-02-22T01:53:51.170Z,35.30
2024-02-22T01:56:18.968Z,37.13
2024-02-22T01:58:45.596Z,38.00
2024-02-22T02:01:12.209Z,37.55
2024-02-22T02:03:38.787Z,39.55
2024-02-22T02:06:06.811Z,39.10
2024-02-22T02:08:33.540Z,39.17
2024-02-22T02:11:00.193Z,36.95
2024-02-22T02:13:26.819Z,36.92
2024-02-22T02:15:53.340Z,36.92
2024-02-22T02:18:19.889Z,34.83
2024-02-22T02:21:11.344Z,40.30
2024-02-22T02:23:50.092Z,35.97
2024-02-22T02:26:17.098Z,36.78
2024-02-22T02:28:43.729Z,38.05
2024-02-22T02:31:10.585Z,38.40
2024-02-22T02:33:37.323Z,39.88
2024-02-22T02:36:03.910Z,36.80
2024-02-22T02:38:30.444Z,35.22
2024-02-22T02:40:56.996Z,37.70
2024-02-22T02:43:23.640Z,37.28
2024-02-22T02:45:50.171Z,38.15
2024-02-22T02:48:20.633Z,36.92
2024-02-22T02:50:47.858Z,37.88
2024-02-22T02:53:14.573Z,39.25
2024-02-22T02:55:41.275Z,43.03
2024-02-22T02:58:09.500Z,38.40
2024-02-22T03:00:36.058Z,40.60
2024-02-22T03:03:02.635Z,39.72
2024-02-22T03:05:29.292Z,35.63
2024-02-22T03:07:55.932Z,40.97
2024-02-22T03:10:22.687Z,39.40
2024-02-22T03:12:49.273Z,40.22
2024-02-22T03:15:15.876Z,39.40
2024-02-22T03:17:42.465Z,39.88
2024-02-22T03:20:12.158Z,40.67
2024-02-22T03:22:39.257Z,38.78
2024-02-22T03:25:06.614Z,40.72
2024-02-22T03:27:35.868Z,38.33
2024-02-22T03:30:04.531Z,37.80
2024-02-22T03:32:31.310Z,40.65
2024-02-22T03:34:59.596Z,40.78
2024-02-22T03:37:26.353Z,38.75
2024-02-22T03:39:52.888Z,40.88
2024-02-22T03:42:19.995Z,39.08
2024-02-22T03:44:46.552Z,40.47
2024-02-22T03:47:13.492Z,41.72
2024-02-22T03:49:40.168Z,42.88
2024-02-22T03:52:08.032Z,42.40
2024-02-22T03:54:37.280Z,42.53
2024-02-22T03:57:04.549Z,46.08
2024-02-22T03:59:31.338Z,42.28
2024-02-22T04:01:57.907Z,43.17
2024-02-22T04:04:24.612Z,43.55
2024-02-22T04:06:51.500Z,43.72
2024-02-22T04:09:18.067Z,43.25
2024-02-22T04:11:44.824Z,42.63
2024-02-22T04:14:11.496Z,41.40
2024-02-22T04:16:38.110Z,44.30
2024-02-22T04:19:04.712Z,41.35
2024-02-22T04:21:31.284Z,43.50
2024-02-22T04:23:57.796Z,44.47
2024-02-22T04:26:24.363Z,44.38
2024-02-22T04:28:50.916Z,43.35
2024-02-22T04:31:17.459Z,42.55
2024-02-22T04:33:44.127Z,48.10
2024-02-22T04:36:10.684Z,1999.90
2024-02-22T04:38:37.318Z,43.42
2024-02-22T04:41:04.300Z,40.55
2024-02-22T04:43:30.869Z,43.22
2024-02-22T04:45:57.411Z,44.83
2024-02-22T04:48:24.018Z,44.58
2024-02-22T04:50:50.568Z,44.28
2024-02-22T04:53:17.231Z,1999.90
2024-02-22T04:55:43.838Z,535.28
2024-02-22T04:58:10.427Z,45.97
2024-02-22T05:00:36.998Z,46.17
2024-02-22T05:03:04.734Z,46.63
2024-02-22T05:05:31.486Z,1999.90
2024-02-22T05:07:58.295Z,47.00
2024-02-22T05:10:24.903Z,48.55
2024-02-22T05:12:51.454Z,45.03
2024-02-22T05:15:17.969Z,50.60
2024-02-22T05:17:44.536Z,49.55
2024-02-22T05:20:11.406Z,49.50
2024-02-22T05:22:38.096Z,48.40
2024-02-22T05:25:05.011Z,48.33
2024-02-22T05:27:31.595Z,54.33
2024-02-22T05:29:58.117Z,56.00
2024-02-22T05:32:24.937Z,51.40
2024-02-22T05:34:51.600Z,50.70
2024-02-22T05:37:18.241Z,50.28
2024-02-22T05:39:44.805Z,51.28
2024-02-22T05:42:11.313Z,53.28
2024-02-22T05:44:37.924Z,48.45
2024-02-22T05:47:04.660Z,46.17
2024-02-22T05:49:31.446Z,51.72
2024-02-22T05:51:58.302Z,52.70
2024-02-22T05:54:24.928Z,51.83
2024-02-22T05:56:51.563Z,48.20
2024-02-22T05:59:18.191Z,53.38
2024-02-22T06:01:45.122Z,53.28
2024-02-22T06:04:12.272Z,541.28
2024-02-22T06:06:38.942Z,53.95
2024-02-22T06:09:09.150Z,53.55
2024-02-22T06:14:03.278Z,1999.90
2024-02-22T06:16:30.138Z,1999.90
2024-02-22T06:18:56.756Z,1513.43
2024-02-22T06:21:23.353Z,53.58
2024-02-22T06:23:52.511Z,54.40
2024-02-22T06:26:20.789Z,54.90
2024-02-22T06:28:48.689Z,57.35
2024-02-22T06:31:15.548Z,55.53
2024-02-22T06:33:42.247Z,1029.78
2024-02-22T06:36:10.890Z,54.28
2024-02-22T06:38:41.534Z,54.17
2024-02-22T06:41:08.326Z,57.78
2024-02-22T06:43:34.939Z,57.72
2024-02-22T06:46:01.542Z,58.60
2024-02-22T06:48:28.183Z,57.90
2024-02-22T06:50:56.079Z,58.75
2024-02-22T06:53:22.741Z,55.63
2024-02-22T06:55:49.413Z,55.30
2024-02-22T06:58:16.015Z,58.22
2024-02-22T07:00:42.651Z,61.53
2024-02-22T07:03:11.083Z,61.90
2024-02-22T07:05:37.785Z,62.33
2024-02-22T07:08:04.889Z,62.55
2024-02-22T07:10:31.767Z,1999.90
2024-02-22T07:12:58.454Z,68.35
2024-02-22T07:15:25.214Z,67.05
2024-02-22T07:17:51.960Z,66.38
2024-02-22T07:20:18.738Z,67.22
2024-02-22T07:22:53.544Z,66.28
2024-02-22T07:25:22.033Z,549.83
2024-02-22T07:27:51.579Z,67.68
2024-02-22T07:30:18.087Z,1999.90
2024-02-22T07:32:45.067Z,69.85
2024-02-22T07:35:11.693Z,71.60
2024-02-22T07:37:38.269Z,71.93
2024-02-22T07:40:05.236Z,75.15
2024-02-22T07:42:33.996Z,73.93
2024-02-22T07:45:00.634Z,78.18
2024-02-22T07:47:27.587Z,74.40
2024-02-22T07:49:54.709Z,1999.90
2024-02-22T07:52:21.246Z,1999.90
2024-02-22T07:54:48.694Z,1999.90
2024-02-22T07:57:15.440Z,1999.90
2024-02-22T07:59:41.944Z,1999.90
2024-02-22T08:02:08.587Z,1999.90
2024-02-22T08:04:35.965Z,1999.90
2024-02-22T08:07:03.394Z,1999.90
2024-02-22T08:09:30.028Z,1999.90
2024-02-22T08:11:56.703Z,1999.90
2024-02-22T08:14:23.359Z,1999.90
2024-02-22T08:16:50.285Z,1999.90
2024-02-22T08:19:17.517Z,1999.90
2024-02-22T08:21:44.118Z,1999.90
2024-02-22T08:24:11.866Z,1999.90
2024-02-22T08:26:38.685Z,1999.90
2024-02-22T08:29:05.451Z,1999.90
2024-02-22T08:31:32.175Z,1523.78
2024-02-22T08:33:58.861Z,90.47
2024-02-22T08:36:25.458Z,92.40
2024-02-22T08:38:51.988Z,89.68
2024-02-22T08:41:18.520Z,92.85
2024-02-22T08:43:45.137Z,95.57
2024-02-22T08:46:12.552Z,97.63
2024-02-22T08:48:39.235Z,1999.90
2024-02-22T08:51:05.858Z,96.75
2024-02-22T08:53:32.797Z,92.82
2024-02-22T08:55:59.484Z,1999.90
2024-02-22T08:58:26.381Z,1999.90
2024-02-22T09:00:53.075Z,1999.90
2024-02-22T09:03:19.773Z,1999.90
2024-02-22T09:05:46.781Z,1999.90
2024-02-22T09:08:13.459Z,1999.90
2024-02-22T09:10:40.195Z,1999.90
2024-02-22T09:13:06.855Z,1999.90
2024-02-22T09:15:33.409Z,1999.90
2024-02-22T09:18:00.353Z,1527.68
2024-02-22T09:20:28.517Z,1527.53
2024-02-22T09:22:57.147Z,1055.00
2024-02-22T09:25:23.974Z,1527.03
2024-02-22T09:27:51.494Z,1528.43
2024-02-22T09:30:18.107Z,113.70
2024-02-22T09:32:45.114Z,109.03
2024-02-22T09:35:11.784Z,112.65
2024-02-22T09:37:38.400Z,112.55
2024-02-22T09:40:05.470Z,114.03
2024-02-22T09:42:32.017Z,109.97
2024-02-22T09:44:58.588Z,109.72
2024-02-22T09:47:25.898Z,108.57
2024-02-22T09:49:52.917Z,104.68
2024-02-22T09:52:21.425Z,109.43
2024-02-22T09:54:49.449Z,110.97
2024-02-22T09:57:16.008Z,115.70
2024-02-22T09:59:48.279Z,113.80
2024-02-22T10:02:14.907Z,111.88
2024-02-22T10:04:51.545Z,108.82
2024-02-22T10:07:25.350Z,109.97
2024-02-22T10:09:52.395Z,113.65
2024-02-22T10:12:31.008Z,117.75
2024-02-22T10:14:58.385Z,118.78
2024-02-22T10:17:26.505Z,116.90
2024-02-22T10:20:00.678Z,112.43
2024-02-22T10:22:28.543Z,124.00
2024-02-22T10:24:55.432Z,110.15
2024-02-22T10:27:23.556Z,121.07
2024-02-22T10:29:50.684Z,110.18
2024-02-22T10:32:20.529Z,117.35
2024-02-22T10:34:49.393Z,116.90
2024-02-22T10:37:17.153Z,121.47
2024-02-22T10:39:46.075Z,125.00
2024-02-22T10:42:14.153Z,112.68
2024-02-22T10:44:46.765Z,110.00
2024-02-22T10:47:13.395Z,108.57
2024-02-22T10:49:40.184Z,111.57
2024-02-22T10:52:07.354Z,112.43
2024-02-22T10:54:34.004Z,104.50
2024-02-22T10:57:00.588Z,109.13
2024-02-22T10:59:27.127Z,106.45
2024-02-22T11:01:53.689Z,111.65
2024-02-22T11:04:20.716Z,115.03
2024-02-22T11:06:48.785Z,112.28
2024-02-22T11:09:19.493Z,116.88
2024-02-22T11:11:48.401Z,107.35
2024-02-22T11:14:25.314Z,117.95
2024-02-22T11:16:51.937Z,117.40
2024-02-22T11:19:26.899Z,115.97
2024-02-22T11:21:56.575Z,114.28
2024-02-22T11:24:24.423Z,105.15
2024-02-22T11:26:57.255Z,110.05
2024-02-22T11:29:30.890Z,97.32
2024-02-22T11:32:06.828Z,101.55
2024-02-22T11:34:33.405Z,96.75
2024-02-22T11:37:18.339Z,102.55
2024-02-22T11:39:46.041Z,94.93
2024-02-22T11:42:19.800Z,99.93
2024-02-22T11:44:46.665Z,101.55
2024-02-22T11:47:16.031Z,103.07
2024-02-22T11:49:43.853Z,104.13
2024-02-22T11:52:10.500Z,105.97
2024-02-22T11:54:37.129Z,100.93
2024-02-22T11:57:04.103Z,98.13
2024-02-22T11:59:31.635Z,96.80
2024-02-22T12:01:59.188Z,96.18
2024-02-22T12:04:27.220Z,100.20
2024-02-22T12:06:54.758Z,97.00
2024-02-22T12:09:21.734Z,101.13
2024-02-22T12:11:48.350Z,102.10
2024-02-22T12:14:15.080Z,94.60
2024-02-22T12:16:41.763Z,105.82
2024-02-22T12:19:08.438Z,100.60
2024-02-22T12:21:37.349Z,102.15
2024-02-22T12:24:04.490Z,104.45
2024-02-22T12:26:31.052Z,100.65
2024-02-22T12:28:59.162Z,106.85
2024-02-22T12:31:28.108Z,106.05
2024-02-22T12:33:55.471Z,115.60
2024-02-22T12:36:23.126Z,120.97
2024-02-22T12:38:49.710Z,113.75
2024-02-22T12:41:16.887Z,117.38
2024-02-22T12:43:50.705Z,113.90
2024-02-22T12:46:17.951Z,109.00
2024-02-22T12:48:44.946Z,108.70
2024-02-22T12:51:11.885Z,112.40
2024-02-22T12:53:39.256Z,109.68
2024-02-22T12:56:06.363Z,103.85
2024-02-22T12:58:33.050Z,105.60
2024-02-22T13:00:59.704Z,110.32
2024-02-22T13:03:26.690Z,104.72
2024-02-22T13:05:53.314Z,105.35
2024-02-22T13:08:26.135Z,98.47
2024-02-22T13:10:56.867Z,98.90
2024-02-22T13:13:23.428Z,111.95
2024-02-22T13:15:50.049Z,100.95
2024-02-22T13:18:16.736Z,102.35
2024-02-22T13:20:43.552Z,104.65
2024-02-22T13:23:10.328Z,101.43
2024-02-22T13:25:36.909Z,103.93
2024-02-22T13:28:03.821Z,102.60
2024-02-22T13:30:30.401Z,110.68
2024-02-22T13:32:56.988Z,108.45
2024-02-22T13:35:23.564Z,111.38
2024-02-22T13:37:52.706Z,111.93
2024-02-22T13:40:21.144Z,112.85
2024-02-22T13:42:47.745Z,119.45
2024-02-22T13:45:14.363Z,108.35
2024-02-22T13:47:41.059Z,112.68
2024-02-22T13:50:08.392Z,108.90
2024-02-22T13:52:35.045Z,109.97
2024-02-22T13:55:03.413Z,108.05
2024-02-22T13:57:34.510Z,113.05
2024-02-22T14:00:01.083Z,109.70
2024-02-22T14:02:27.672Z,109.43
2024-02-22T14:04:54.406Z,112.57
2024-02-22T14:07:20.986Z,105.65
2024-02-22T14:09:49.466Z,111.18
2024-02-22T14:12:16.015Z,108.75
2024-02-22T14:14:42.819Z,113.13
2024-02-22T14:17:11.352Z,107.35
2024-02-22T14:19:38.248Z,106.35
2024-02-22T14:22:04.937Z,108.70
2024-02-22T14:24:32.099Z,119.95
2024-02-22T14:27:12.823Z,101.28
2024-02-22T14:29:41.677Z,91.38
2024-02-22T14:32:09.923Z,96.97
2024-02-22T14:34:38.748Z,100.78
2024-02-22T14:37:05.910Z,107.68
2024-02-22T14:39:32.427Z,117.15
2024-02-22T14:41:59.217Z,112.68
2024-02-22T14:44:26.061Z,104.60
2024-02-22T14:46:52.796Z,103.30
2024-02-22T14:49:19.872Z,108.97
2024-02-22T14:51:46.725Z,116.05
2024-02-22T14:54:13.263Z,119.43
2024-02-22T14:56:40.241Z,110.15
2024-02-22T14:59:06.823Z,107.88
2024-02-22T15:01:33.419Z,102.80
2024-02-22T15:03:59.949Z,118.93
2024-02-22T15:06:26.560Z,99.18
2024-02-22T15:08:53.143Z,99.32
2024-02-22T15:11:19.888Z,97.45
2024-02-22T15:13:47.606Z,93.55
2024-02-22T15:16:14.400Z,102.20
2024-02-22T15:18:41.181Z,100.45
2024-02-22T15:21:08.055Z,104.63
2024-02-22T15:23:37.307Z,98.10
2024-02-22T15:26:07.977Z,100.13
2024-02-22T15:28:34.588Z,103.50
2024-02-22T15:31:01.299Z,107.07
2024-02-22T15:33:28.036Z,101.45
2024-02-22T15:35:55.241Z,96.65
2024-02-22T15:38:22.032Z,90.82
2024-02-22T15:40:49.247Z,103.72
2024-02-22T15:43:16.028Z,97.35
2024-02-22T15:45:43.438Z,98.55
2024-02-22T15:48:10.077Z,92.45
2024-02-22T15:50:36.712Z,96.35
2024-02-22T15:53:06.236Z,113.75
2024-02-22T15:55:33.418Z,127.13
2024-02-22T15:58:02.831Z,95.88
2024-02-22T16:00:30.469Z,91.93
2024-02-22T16:02:57.130Z,114.30
2024-02-22T16:05:24.850Z,102.05
2024-02-22T16:07:51.926Z,94.63
2024-02-22T16:10:18.574Z,95.45
2024-02-22T16:12:45.106Z,89.47
2024-02-22T16:15:11.866Z,91.18
2024-02-22T16:17:39.153Z,88.50
2024-02-22T16:20:06.364Z,92.70
2024-02-22T16:22:32.979Z,93.43
2024-02-22T16:24:59.781Z,91.60
2024-02-22T16:27:26.412Z,129.98
2024-02-22T16:29:53.479Z,112.88
2024-02-22T16:32:20.136Z,84.10
2024-02-22T16:34:46.732Z,88.70
2024-02-22T16:37:16.065Z,84.70
2024-02-22T16:39:45.922Z,127.07
2024-02-22T16:42:12.621Z,90.22
2024-02-22T16:44:41.251Z,91.28
2024-02-22T16:47:15.586Z,91.15
2024-02-22T16:49:42.721Z,81.65
2024-02-22T16:52:09.828Z,87.07
2024-02-22T16:54:36.770Z,89.07
2024-02-22T16:57:04.408Z,95.13
2024-02-22T16:59:31.594Z,93.68
2024-02-22T17:01:58.314Z,85.65
2024-02-22T17:04:24.956Z,85.70
2024-02-22T17:06:59.265Z,1063.15
2024-02-22T17:09:29.145Z,91.30
2024-02-22T17:11:56.793Z,83.32
2024-02-22T17:14:24.419Z,88.35
2024-02-22T17:16:51.156Z,87.78
2024-02-22T17:19:18.316Z,85.38
2024-02-22T17:21:47.665Z,97.60
2024-02-22T17:24:15.233Z,87.47
2024-02-22T17:26:41.749Z,92.32
2024-02-22T17:29:08.312Z,88.95
2024-02-22T17:31:34.896Z,85.05
2024-02-22T17:34:01.529Z,87.95
2024-02-22T17:36:28.067Z,86.38
2024-02-22T17:38:55.945Z,93.93
2024-02-22T17:41:22.512Z,83.43
2024-02-22T17:43:49.123Z,81.80
2024-02-22T17:46:15.698Z,82.65
2024-02-22T17:48:42.358Z,87.22
2024-02-22T17:51:09.108Z,82.28
2024-02-22T17:53:36.839Z,79.53
2024-02-22T17:56:03.812Z,95.32
2024-02-22T17:58:31.948Z,83.75
2024-02-22T18:00:59.838Z,86.90
2024-02-22T18:03:26.583Z,81.75
2024-02-22T18:05:53.140Z,114.82
2024-02-22T18:08:19.755Z,82.05
2024-02-22T18:10:46.657Z,82.03
2024-02-22T18:13:13.284Z,85.38
2024-02-22T18:15:39.832Z,79.32
2024-02-22T18:18:06.501Z,88.43
2024-02-22T18:20:37.779Z,78.07
2024-02-22T18:23:05.262Z,81.68
2024-02-22T18:25:32.015Z,76.93
2024-02-22T18:27:59.573Z,80.70
2024-02-22T18:30:26.098Z,82.30
2024-02-22T18:32:54.279Z,84.28
2024-02-22T18:35:21.366Z,93.47
2024-02-22T18:37:48.268Z,83.65
2024-02-22T18:40:15.225Z,82.95
2024-02-22T18:42:43.320Z,105.00
2024-02-22T18:45:10.967Z,82.55
2024-02-22T18:47:38.122Z,89.70
2024-02-22T18:50:05.192Z,84.97
2024-02-22T18:52:34.756Z,121.10
2024-02-22T18:55:01.987Z,81.95
2024-02-22T18:57:28.537Z,86.30
2024-02-22T18:59:55.223Z,94.03
2024-02-22T19:02:21.839Z,92.05
2024-02-22T19:04:49.519Z,91.13
2024-02-22T19:07:22.285Z,85.32
2024-02-22T19:09:49.371Z,93.13
2024-02-22T19:12:16.199Z,119.25
2024-02-22T19:14:42.769Z,94.90
2024-02-22T19:17:11.313Z,94.30
2024-02-22T19:19:39.730Z,105.50
2024-02-22T19:22:08.293Z,98.10
2024-02-22T19:24:35.037Z,98.00
2024-02-22T19:27:04.451Z,87.70
2024-02-22T19:29:31.247Z,108.38
2024-02-22T19:31:59.845Z,91.13
2024-02-22T19:34:26.606Z,98.60
2024-02-22T19:36:53.357Z,90.47
2024-02-22T19:39:22.109Z,94.03
2024-02-22T19:41:49.406Z,99.25
2024-02-22T19:44:16.111Z,94.30
2024-02-22T19:46:42.724Z,87.00
2024-02-22T19:49:09.523Z,84.22
2024-02-22T19:51:37.960Z,88.30
2024-02-22T19:54:04.498Z,82.07
2024-02-22T19:56:31.016Z,101.72
2024-02-22T19:59:00.762Z,92.82
2024-02-22T20:01:27.706Z,89.47
2024-02-22T20:03:56.321Z,105.50
2024-02-22T20:06:22.900Z,94.88
2024-02-22T20:08:49.426Z,102.80
2024-02-22T20:11:17.133Z,102.32
2024-02-22T20:13:43.716Z,105.45
2024-02-22T20:16:10.251Z,101.03
2024-02-22T20:18:36.898Z,100.32
2024-02-22T20:21:04.965Z,102.43
2024-02-22T20:23:31.778Z,104.43
2024-02-22T20:25:59.720Z,104.68
2024-02-22T20:28:27.941Z,104.78
2024-02-22T20:30:54.523Z,107.03
2024-02-22T20:33:21.545Z,111.03
2024-02-22T20:35:50.409Z,103.22
2024-02-22T20:38:17.755Z,118.63
2024-02-22T20:40:44.840Z,135.25
2024-02-22T20:43:13.061Z,94.82
2024-02-22T20:45:39.604Z,101.65
2024-02-22T20:48:07.069Z,99.47
2024-02-22T20:50:33.697Z,100.57
2024-02-22T20:53:00.279Z,106.97
2024-02-22T20:55:32.457Z,93.18
2024-02-22T20:57:59.486Z,95.35
2024-02-22T21:00:26.125Z,100.45
2024-02-22T21:02:52.650Z,100.05
2024-02-22T21:05:19.312Z,280.67
2024-02-22T21:07:46.158Z,94.30
2024-02-22T21:10:15.593Z,99.57
2024-02-22T21:12:42.105Z,85.63
2024-02-22T21:15:09.116Z,81.72
2024-02-22T21:17:35.952Z,112.32
2024-02-22T21:20:02.703Z,74.85
2024-02-22T21:22:29.249Z,93.47
2024-02-22T21:24:55.748Z,71.97
2024-02-22T21:27:22.398Z,104.55
2024-02-22T21:29:49.467Z,80.25
2024-02-22T21:32:16.082Z,61.10
2024-02-22T21:34:42.692Z,101.18
2024-02-22T21:37:09.278Z,65.20
2024-02-22T21:39:35.792Z,105.30
2024-02-22T21:42:08.052Z,90.78
2024-02-22T21:44:35.075Z,70.35
2024-02-22T21:47:02.063Z,202.55
2024-02-22T21:49:29.547Z,77.50
2024-02-22T21:51:56.095Z,66.63
2024-02-22T21:54:22.789Z,80.03
2024-02-22T21:56:49.375Z,58.58
2024-02-22T21:59:16.272Z,111.88
2024-02-22T22:01:42.914Z,63.60
2024-02-22T22:04:09.525Z,55.60
2024-02-22T22:06:36.085Z,88.25
2024-02-22T22:09:02.646Z,74.88
2024-02-22T22:11:29.326Z,62.15
2024-02-22T22:13:55.979Z,61.45
2024-02-22T22:16:22.497Z,75.10
2024-02-22T22:18:49.122Z,105.45
2024-02-22T22:21:24.988Z,79.53
2024-02-22T22:23:55.363Z,65.57
2024-02-22T22:26:22.069Z,72.05
2024-02-22T22:28:48.748Z,86.45
2024-02-22T22:31:15.332Z,77.03
2024-02-22T22:33:46.529Z,73.72
2024-02-22T22:36:14.942Z,76.85
2024-02-22T22:38:41.763Z,82.38
2024-02-22T22:41:10.300Z,185.93
2024-02-22T22:43:36.881Z,211.65
2024-02-22T22:46:03.771Z,1999.90
2024-02-22T22:48:30.640Z,78.00
2024-02-22T22:50:57.597Z,1522.53
2024-02-22T22:53:24.244Z,79.55
2024-02-22T22:55:50.873Z,1999.90
2024-02-22T22:58:17.430Z,560.63
2024-02-22T23:00:43.965Z,82.85
2024-02-22T23:03:10.807Z,76.93
2024-02-22T23:05:37.428Z,72.43
2024-02-22T23:08:04.167Z,138.70
2024-02-22T23:10:32.076Z,76.15
2024-02-22T23:12:58.791Z,74.18
2024-02-22T23:15:25.596Z,70.13
2024-02-22T23:17:53.329Z,67.82
2024-02-22T23:20:20.170Z,67.22
2024-02-22T23:22:46.752Z,73.50
2024-02-22T23:25:13.951Z,79.22
2024-02-22T23:27:40.484Z,64.78
2024-02-22T23:30:07.396Z,81.53
2024-02-22T23:32:34.995Z,76.22
2024-02-22T23:35:01.648Z,86.00
2024-02-22T23:37:28.209Z,65.32
2024-02-22T23:39:54.749Z,79.63
2024-02-22T23:42:21.626Z,70.13
2024-02-22T23:44:48.181Z,73.75
2024-02-22T23:47:14.718Z,67.18
2024-02-22T23:49:41.364Z,72.57
2024-02-22T23:52:07.913Z,66.95
2024-02-22T23:54:35.537Z,62.22
2024-02-22T23:57:02.094Z,63.05
2024-02-22T23:59:28.644Z,74.97
